createdAt,value
2023-02-03T00:00:15.404Z,5.09
2023-02-03T00:01:15.403Z,5.09
2023-02-03T00:02:15.453Z,5.09
2023-02-03T00:03:15.437Z,5.11
2023-02-03T00:04:15.364Z,5.11
2023-02-03T00:05:15.364Z,5.11
2023-02-03T00:06:15.345Z,5.11
2023-02-03T00:07:15.354Z,5.11
2023-02-03T00:08:15.346Z,5.11
2023-02-03T00:09:15.350Z,5.11
2023-02-03T00:10:15.308Z,5.11
2023-02-03T00:11:15.298Z,5.12
2023-02-03T00:12:15.301Z,5.12
2023-02-03T00:13:15.299Z,5.12
2023-02-03T00:14:15.295Z,5.14
2023-02-03T00:15:15.256Z,5.14
2023-02-03T00:16:15.311Z,5.14
2023-02-03T00:17:15.226Z,5.15
2023-02-03T00:18:15.251Z,5.16
2023-02-03T00:19:17.392Z,5.15
2023-02-03T00:20:15.214Z,5.14
2023-02-03T00:21:15.189Z,5.16
2023-02-03T00:22:15.179Z,5.16
2023-02-03T00:23:15.197Z,5.18
2023-02-03T00:24:15.171Z,5.18
2023-02-03T00:25:15.156Z,5.18
2023-02-03T00:26:15.145Z,5.19
2023-02-03T00:27:15.131Z,5.21
2023-02-03T00:28:15.193Z,5.19
2023-02-03T00:29:15.116Z,5.21
2023-02-03T00:30:15.119Z,5.22
2023-02-03T00:31:15.178Z,5.22
2023-02-03T00:32:15.154Z,5.22
2023-02-03T00:33:15.093Z,5.25
2023-02-03T00:34:15.073Z,5.25
2023-02-03T00:35:15.069Z,5.27
2023-02-03T00:36:15.044Z,5.27
2023-02-03T00:37:15.024Z,5.25
2023-02-03T00:38:15.035Z,5.27
2023-02-03T00:39:15.004Z,5.29
2023-02-03T00:40:15.004Z,5.29
2023-02-03T00:41:14.993Z,5.32
2023-02-03T00:42:14.985Z,5.32
2023-02-03T00:43:14.985Z,5.33
2023-02-03T00:44:14.975Z,5.33
2023-02-03T00:45:14.947Z,5.34
2023-02-03T00:46:15.043Z,5.34
2023-02-03T00:47:14.937Z,5.36
2023-02-03T00:48:14.948Z,5.37
2023-02-03T00:49:14.907Z,5.37
2023-02-03T00:50:14.910Z,5.39
2023-02-03T00:51:14.896Z,5.40
2023-02-03T00:52:14.877Z,5.40
2023-02-03T00:53:14.903Z,5.41
2023-02-03T00:54:14.866Z,5.41
2023-02-03T00:55:14.847Z,5.43
2023-02-03T00:56:14.839Z,5.47
2023-02-03T00:57:14.832Z,5.47
2023-02-03T00:58:14.818Z,5.51
2023-02-03T00:59:14.820Z,5.51
2023-02-03T01:00:14.798Z,5.51
2023-02-03T01:01:14.826Z,5.52
2023-02-03T01:02:14.857Z,5.52
2023-02-03T01:03:14.776Z,5.55
2023-02-03T01:04:14.780Z,5.52
2023-02-03T01:05:14.754Z,5.54
2023-02-03T01:06:14.745Z,5.57
2023-02-03T01:07:14.736Z,5.57
2023-02-03T01:08:14.724Z,5.57
2023-02-03T01:09:14.724Z,5.57
2023-02-03T01:10:14.706Z,5.58
2023-02-03T01:11:14.699Z,5.58
2023-02-03T01:12:14.675Z,5.58
2023-02-03T01:13:14.668Z,5.59
2023-02-03T01:14:14.686Z,5.59
2023-02-03T01:15:14.653Z,5.59
2023-02-03T01:16:14.688Z,5.59
2023-02-03T01:17:14.628Z,5.61
2023-02-03T01:18:14.622Z,5.61
2023-02-03T01:19:14.625Z,5.61
2023-02-03T01:20:14.600Z,5.62
2023-02-03T01:21:14.590Z,5.62
2023-02-03T01:22:14.578Z,5.62
2023-02-03T01:23:14.567Z,5.65
2023-02-03T01:24:14.585Z,5.65
2023-02-03T01:25:14.556Z,5.65
2023-02-03T01:26:14.543Z,5.62
2023-02-03T01:27:14.525Z,5.65
2023-02-03T01:28:14.627Z,5.65
2023-02-03T01:29:14.535Z,5.65
2023-02-03T01:30:14.504Z,5.66
2023-02-03T01:31:14.593Z,5.66
2023-02-03T01:32:14.483Z,5.67
2023-02-03T01:33:14.474Z,5.69
2023-02-03T01:34:14.470Z,5.69
2023-02-03T01:35:14.456Z,5.69
2023-02-03T01:36:14.441Z,5.72
2023-02-03T01:37:14.428Z,5.70
2023-02-03T01:38:14.455Z,5.72
2023-02-03T01:39:14.436Z,5.72
2023-02-03T01:40:14.398Z,5.73
2023-02-03T01:41:14.382Z,5.72
2023-02-03T01:42:14.387Z,5.75
2023-02-03T01:43:14.365Z,5.72
2023-02-03T01:44:14.380Z,5.73
2023-02-03T01:45:14.391Z,5.75
2023-02-03T01:46:14.354Z,5.75
2023-02-03T01:47:14.327Z,5.76
2023-02-03T01:48:14.329Z,5.77
2023-02-03T01:49:14.345Z,5.80
2023-02-03T01:50:14.298Z,5.80
2023-02-03T01:51:14.284Z,5.80
2023-02-03T01:52:14.283Z,5.85
2023-02-03T01:53:14.281Z,5.85
2023-02-03T01:54:14.268Z,5.88
2023-02-03T01:55:14.247Z,5.88
2023-02-03T01:56:14.242Z,5.90
2023-02-03T01:57:14.240Z,5.94
2023-02-03T01:58:14.232Z,5.97
2023-02-03T01:59:14.220Z,6.00
2023-02-03T02:00:14.199Z,6.03
2023-02-03T02:01:14.249Z,6.08
2023-02-03T02:02:14.239Z,6.11
2023-02-03T02:03:14.159Z,6.12
2023-02-03T02:04:14.170Z,6.15
2023-02-03T02:05:14.141Z,6.18
2023-02-03T02:06:14.150Z,6.21
2023-02-03T02:07:14.122Z,6.28
2023-02-03T02:08:14.112Z,6.30
2023-02-03T02:09:14.120Z,6.32
2023-02-03T02:10:14.092Z,6.35
2023-02-03T02:11:14.083Z,6.40
2023-02-03T02:12:14.082Z,6.42
2023-02-03T02:13:14.075Z,6.43
2023-02-03T02:14:14.073Z,6.46
2023-02-03T02:15:14.053Z,6.47
2023-02-03T02:16:14.089Z,6.47
2023-02-03T02:17:14.020Z,6.49
2023-02-03T02:18:14.027Z,6.50
2023-02-03T02:19:14.024Z,6.50
2023-02-03T02:20:13.995Z,6.49
2023-02-03T02:21:13.991Z,6.52
2023-02-03T02:22:13.973Z,6.53
2023-02-03T02:23:13.955Z,6.55
2023-02-03T02:24:13.976Z,6.53
2023-02-03T02:25:13.955Z,6.55
2023-02-03T02:26:13.937Z,6.55
2023-02-03T02:27:13.917Z,6.55
2023-02-03T02:28:13.952Z,6.56
2023-02-03T02:29:13.919Z,6.57
2023-02-03T02:30:13.887Z,6.57
2023-02-03T02:31:14.019Z,6.61
2023-02-03T02:32:13.869Z,6.63
2023-02-03T02:33:13.865Z,6.63
2023-02-03T02:34:13.890Z,6.63
2023-02-03T02:35:13.837Z,6.64
2023-02-03T02:36:13.831Z,6.65
2023-02-03T02:37:13.818Z,6.67
2023-02-03T02:38:13.818Z,6.67
2023-02-03T02:39:13.828Z,6.68
2023-02-03T02:40:13.792Z,6.70
2023-02-03T02:41:13.783Z,6.68
2023-02-03T02:42:13.774Z,6.70
2023-02-03T02:43:13.766Z,6.70
2023-02-03T02:44:13.762Z,6.70
2023-02-03T02:45:13.737Z,6.70
2023-02-03T02:46:13.723Z,6.68
2023-02-03T02:47:13.713Z,6.68
2023-02-03T02:48:13.719Z,6.68
2023-02-03T02:49:13.714Z,6.68
2023-02-03T02:50:13.685Z,6.70
2023-02-03T02:51:13.674Z,6.68
2023-02-03T02:52:13.675Z,6.68
2023-02-03T02:53:13.655Z,6.68
2023-02-03T02:54:13.667Z,6.67
2023-02-03T02:55:13.642Z,6.67
2023-02-03T02:56:15.544Z,6.67
2023-02-03T02:57:13.610Z,6.65
2023-02-03T02:58:13.606Z,6.65
2023-02-03T02:59:13.620Z,6.67
2023-02-03T03:00:13.586Z,6.65
2023-02-03T03:01:13.595Z,6.67
2023-02-03T03:02:13.569Z,6.65
2023-02-03T03:03:13.584Z,6.65
2023-02-03T03:04:13.559Z,6.67
2023-02-03T03:05:13.586Z,6.67
2023-02-03T03:06:13.523Z,6.68
2023-02-03T03:07:13.511Z,6.68
2023-02-03T03:08:13.523Z,6.71
2023-02-03T03:09:13.503Z,6.70
2023-02-03T03:10:13.492Z,6.70
2023-02-03T03:11:13.473Z,6.70
2023-02-03T03:12:13.473Z,6.73
2023-02-03T03:13:13.464Z,6.71
2023-02-03T03:14:13.456Z,6.71
2023-02-03T03:15:13.458Z,6.73
2023-02-03T03:16:13.474Z,6.71
2023-02-03T03:17:13.407Z,6.71
2023-02-03T03:18:13.425Z,6.73
2023-02-03T03:19:13.395Z,6.74
2023-02-03T03:20:13.403Z,6.74
2023-02-03T03:21:13.377Z,6.74
2023-02-03T03:22:13.404Z,6.74
2023-02-03T03:23:13.353Z,6.74
2023-02-03T03:24:13.335Z,6.75
2023-02-03T03:25:13.343Z,6.78
2023-02-03T03:26:13.363Z,6.78
2023-02-03T03:27:13.305Z,6.78
2023-02-03T03:28:13.324Z,6.81
2023-02-03T03:29:13.287Z,6.81
2023-02-03T03:30:13.304Z,6.79
2023-02-03T03:31:13.394Z,6.81
2023-02-03T03:32:13.267Z,6.81
2023-02-03T03:33:13.245Z,6.81
2023-02-03T03:34:13.258Z,6.83
2023-02-03T03:35:13.250Z,6.85
2023-02-03T03:36:13.218Z,6.85
2023-02-03T03:37:13.207Z,6.86
2023-02-03T03:38:13.209Z,6.88
2023-02-03T03:39:13.182Z,6.89
2023-02-03T03:40:13.199Z,6.91
2023-02-03T03:41:13.160Z,6.91
2023-02-03T03:42:13.160Z,6.91
2023-02-03T03:43:13.151Z,6.92
2023-02-03T03:44:13.145Z,6.92
2023-02-03T03:45:13.143Z,6.92
2023-02-03T03:46:13.123Z,6.93
2023-02-03T03:47:13.126Z,6.93
2023-02-03T03:48:13.106Z,6.93
2023-02-03T03:49:13.091Z,6.92
2023-02-03T03:50:13.097Z,6.93
2023-02-03T03:51:13.070Z,6.96
2023-02-03T03:52:13.059Z,6.96
2023-02-03T03:53:13.045Z,6.96
2023-02-03T03:54:13.034Z,6.93
2023-02-03T03:55:13.034Z,6.93
2023-02-03T03:56:13.022Z,6.93
2023-02-03T03:57:13.001Z,6.93
2023-02-03T03:58:12.995Z,6.92
2023-02-03T03:59:12.978Z,6.92
2023-02-03T04:00:12.986Z,6.96
2023-02-03T04:01:13.012Z,6.96
2023-02-03T04:02:13.080Z,6.97
2023-02-03T04:03:12.954Z,6.99
2023-02-03T04:04:12.928Z,7.00
2023-02-03T04:05:12.929Z,7.01
2023-02-03T04:06:12.915Z,7.03
2023-02-03T04:07:12.898Z,7.03
2023-02-03T04:08:12.892Z,7.04
2023-02-03T04:09:12.878Z,7.06
2023-02-03T04:10:12.890Z,7.07
2023-02-03T04:11:12.851Z,7.08
2023-02-03T04:12:12.851Z,7.07
2023-02-03T04:13:12.835Z,7.07
2023-02-03T04:14:12.838Z,7.07
2023-02-03T04:15:12.833Z,7.07
2023-02-03T04:16:12.844Z,7.08
2023-02-03T04:17:12.791Z,7.08
2023-02-03T04:18:12.792Z,7.08
2023-02-03T04:19:12.776Z,7.10
2023-02-03T04:20:12.796Z,7.11
2023-02-03T04:21:12.752Z,7.10
2023-02-03T04:22:12.753Z,7.11
2023-02-03T04:23:12.734Z,7.11
2023-02-03T04:24:12.724Z,7.10
2023-02-03T04:25:12.733Z,7.08
2023-02-03T04:26:12.694Z,7.10
2023-02-03T04:27:12.694Z,7.10
2023-02-03T04:28:12.699Z,7.08
2023-02-03T04:29:12.674Z,7.08
2023-02-03T04:30:12.676Z,7.07
2023-02-03T04:31:12.691Z,7.07
2023-02-03T04:32:12.651Z,7.08
2023-02-03T04:33:12.635Z,7.08
2023-02-03T04:34:12.621Z,7.08
2023-02-03T04:35:12.631Z,7.06
2023-02-03T04:36:12.598Z,7.07
2023-02-03T04:37:12.590Z,7.11
2023-02-03T04:38:12.574Z,7.13
2023-02-03T04:39:12.582Z,7.18
2023-02-03T04:40:12.575Z,7.21
2023-02-03T04:41:12.559Z,7.19
2023-02-03T04:42:12.547Z,7.21
2023-02-03T04:43:12.531Z,7.24
2023-02-03T04:44:12.511Z,7.22
2023-02-03T04:45:12.538Z,7.24
2023-02-03T04:46:12.549Z,7.24
2023-02-03T04:47:12.489Z,7.24
2023-02-03T04:48:12.475Z,7.25
2023-02-03T04:49:12.475Z,7.25
2023-02-03T04:50:12.468Z,7.26
2023-02-03T04:51:12.472Z,7.26
2023-02-03T04:52:12.432Z,7.25
2023-02-03T04:53:14.042Z,7.25
2023-02-03T04:54:12.411Z,7.24
2023-02-03T04:55:12.424Z,7.24
2023-02-03T04:56:12.394Z,7.22
2023-02-03T04:57:12.389Z,7.22
2023-02-03T04:58:12.367Z,7.21
2023-02-03T04:59:12.363Z,7.22
2023-02-03T05:00:12.376Z,7.22
2023-02-03T05:01:12.450Z,7.21
2023-02-03T05:02:12.328Z,7.24
2023-02-03T05:03:12.387Z,7.22
2023-02-03T05:04:12.313Z,7.22
2023-02-03T05:05:12.323Z,7.21
2023-02-03T05:06:12.305Z,7.22
2023-02-03T05:07:12.283Z,7.21
2023-02-03T05:08:12.268Z,7.19
2023-02-03T05:09:12.264Z,7.19
2023-02-03T05:10:12.268Z,7.18
2023-02-03T05:11:12.249Z,7.19
2023-02-03T05:12:12.229Z,7.18
2023-02-03T05:13:12.224Z,7.18
2023-02-03T05:14:12.220Z,7.16
2023-02-03T05:15:12.218Z,7.15
2023-02-03T05:16:12.199Z,7.15
2023-02-03T05:17:12.203Z,7.13
2023-02-03T05:18:12.161Z,7.13
2023-02-03T05:19:12.154Z,7.11
2023-02-03T05:20:12.160Z,7.10
2023-02-03T05:21:12.137Z,7.07
2023-02-03T05:22:12.141Z,7.07
2023-02-03T05:23:12.123Z,7.06
2023-02-03T05:24:12.113Z,7.04
2023-02-03T05:25:12.126Z,7.04
2023-02-03T05:26:12.108Z,7.03
2023-02-03T05:27:12.079Z,7.03
2023-02-03T05:28:12.144Z,7.06
2023-02-03T05:29:12.059Z,7.07
2023-02-03T05:30:12.069Z,7.10
2023-02-03T05:31:12.073Z,7.11
2023-02-03T05:32:12.080Z,7.16
2023-02-03T05:33:12.022Z,7.16
2023-02-03T05:34:12.009Z,7.16
2023-02-03T05:35:12.020Z,7.16
2023-02-03T05:36:11.984Z,7.16
2023-02-03T05:37:12.003Z,7.16
2023-02-03T05:38:11.975Z,7.18
2023-02-03T05:39:11.966Z,7.21
2023-02-03T05:40:11.960Z,7.22
2023-02-03T05:41:11.951Z,7.24
2023-02-03T05:42:11.918Z,7.24
2023-02-03T05:43:11.909Z,7.24
2023-02-03T05:44:11.913Z,7.25
2023-02-03T05:45:11.928Z,7.28
2023-02-03T05:46:12.011Z,7.28
2023-02-03T05:47:11.873Z,7.29
2023-02-03T05:48:11.858Z,7.31
2023-02-03T05:49:11.863Z,7.33
2023-02-03T05:50:11.851Z,7.34
2023-02-03T05:51:11.852Z,7.37
2023-02-03T05:52:11.825Z,7.37
2023-02-03T05:53:11.816Z,7.40
2023-02-03T05:54:11.794Z,7.42
2023-02-03T05:55:11.812Z,7.43
2023-02-03T05:56:11.826Z,7.43
2023-02-03T05:57:11.782Z,7.44
2023-02-03T05:58:11.757Z,7.44
2023-02-03T05:59:11.754Z,7.47
2023-02-03T06:00:11.760Z,7.49
2023-02-03T06:01:11.756Z,7.50
2023-02-03T06:02:11.717Z,7.55
2023-02-03T06:03:11.744Z,7.57
2023-02-03T06:04:11.902Z,7.57
2023-02-03T06:05:11.704Z,7.61
2023-02-03T06:06:11.677Z,7.61
2023-02-03T06:07:11.669Z,7.64
2023-02-03T06:08:11.666Z,7.64
2023-02-03T06:09:11.652Z,7.66
2023-02-03T06:10:11.648Z,7.66
2023-02-03T06:11:11.620Z,7.66
2023-02-03T06:12:11.614Z,7.68
2023-02-03T06:13:11.600Z,7.71
2023-02-03T06:14:11.604Z,7.74
2023-02-03T06:15:11.601Z,7.73
2023-02-03T06:16:11.655Z,7.76
2023-02-03T06:17:11.571Z,7.76
2023-02-03T06:18:11.542Z,7.76
2023-02-03T06:19:11.551Z,7.76
2023-02-03T06:20:11.548Z,7.76
2023-02-03T06:21:11.518Z,7.76
2023-02-03T06:22:11.504Z,7.76
2023-02-03T06:23:11.514Z,7.76
2023-02-03T06:24:11.498Z,7.76
2023-02-03T06:25:13.166Z,7.76
2023-02-03T06:26:11.462Z,7.77
2023-02-03T06:27:11.460Z,7.77
2023-02-03T06:28:11.500Z,7.80
2023-02-03T06:29:11.452Z,7.83
2023-02-03T06:30:11.454Z,7.83
2023-02-03T06:31:11.551Z,7.84
2023-02-03T06:32:11.416Z,7.86
2023-02-03T06:33:11.398Z,7.86
2023-02-03T06:34:11.378Z,7.87
2023-02-03T06:35:11.394Z,7.88
2023-02-03T06:36:11.373Z,7.88
2023-02-03T06:37:11.366Z,7.94
2023-02-03T06:38:11.346Z,7.95
2023-02-03T06:39:11.349Z,7.96
2023-02-03T06:40:11.344Z,7.95
2023-02-03T06:41:11.323Z,7.98
2023-02-03T06:42:11.298Z,7.99
2023-02-03T06:43:11.293Z,8.01
2023-02-03T06:44:11.278Z,7.99
2023-02-03T06:45:11.294Z,8.01
2023-02-03T06:46:11.284Z,7.99
2023-02-03T06:47:11.261Z,7.99
2023-02-03T06:48:11.389Z,7.99
2023-02-03T06:49:11.238Z,8.01
2023-02-03T06:50:11.234Z,8.02
2023-02-03T06:51:11.216Z,8.02
2023-02-03T06:52:11.195Z,8.04
2023-02-03T06:53:11.189Z,8.05
2023-02-03T06:54:11.186Z,8.05
2023-02-03T06:55:11.195Z,8.05
2023-02-03T06:56:11.114Z,8.06
2023-02-03T06:57:11.104Z,8.05
2023-02-03T06:58:11.085Z,8.06
2023-02-03T06:59:11.084Z,8.09
2023-02-03T07:00:13.609Z,8.09
2023-02-03T07:01:11.181Z,8.10
2023-02-03T07:02:11.095Z,8.10
2023-02-03T07:03:11.094Z,8.12
2023-02-03T07:04:11.092Z,8.13
2023-02-03T07:05:11.089Z,8.13
2023-02-03T07:06:11.046Z,8.14
2023-02-03T07:07:11.047Z,8.14
2023-02-03T07:08:11.027Z,8.14
2023-02-03T07:09:10.989Z,8.16
2023-02-03T07:10:10.981Z,8.16
2023-02-03T07:11:10.966Z,8.17
2023-02-03T07:12:10.988Z,8.20
2023-02-03T07:13:10.989Z,8.23
2023-02-03T07:14:10.909Z,8.24
2023-02-03T07:15:10.987Z,8.26
2023-02-03T07:16:10.955Z,8.26
2023-02-03T07:17:10.889Z,8.26
2023-02-03T07:18:11.828Z,8.26
2023-02-03T07:19:10.874Z,8.26
2023-02-03T07:20:10.873Z,8.26
2023-02-03T07:21:10.843Z,8.26
2023-02-03T07:22:10.845Z,8.26
2023-02-03T07:23:10.830Z,8.24
2023-02-03T07:24:10.823Z,8.24
2023-02-03T07:25:10.823Z,8.24
2023-02-03T07:26:10.797Z,8.26
2023-02-03T07:27:10.795Z,8.26
2023-02-03T07:28:10.858Z,8.26
2023-02-03T07:29:10.765Z,8.28
2023-02-03T07:30:10.778Z,8.28
2023-02-03T07:31:10.968Z,8.28
2023-02-03T07:32:10.777Z,8.28
2023-02-03T07:33:10.728Z,8.28
2023-02-03T07:34:10.737Z,8.26
2023-02-03T07:35:10.716Z,8.24
2023-02-03T07:36:10.697Z,8.24
2023-02-03T07:37:10.706Z,8.24
2023-02-03T07:38:10.660Z,8.23
2023-02-03T07:39:10.656Z,8.23
2023-02-03T07:40:10.667Z,8.21
2023-02-03T07:41:10.671Z,8.20
2023-02-03T07:42:10.646Z,8.20
2023-02-03T07:43:10.627Z,8.20
2023-02-03T07:44:10.604Z,8.19
2023-02-03T07:45:10.629Z,8.19
2023-02-03T07:46:10.634Z,8.20
2023-02-03T07:47:12.555Z,8.19
2023-02-03T07:48:10.569Z,8.20
2023-02-03T07:49:10.577Z,8.20
2023-02-03T07:50:10.580Z,8.20
2023-02-03T07:51:10.640Z,8.20
2023-02-03T07:52:10.526Z,8.20
2023-02-03T07:53:10.544Z,8.21
2023-02-03T07:54:10.523Z,8.23
2023-02-03T07:55:10.533Z,8.24
2023-02-03T07:56:10.484Z,8.28
2023-02-03T07:57:10.483Z,8.28
2023-02-03T07:58:10.469Z,8.31
2023-02-03T07:59:10.466Z,8.32
2023-02-03T08:00:10.457Z,8.32
2023-02-03T08:01:10.438Z,8.34
2023-02-03T08:02:10.457Z,8.35
2023-02-03T08:03:10.425Z,8.35
2023-02-03T08:04:10.401Z,8.35
2023-02-03T08:05:10.507Z,8.35
2023-02-03T08:06:10.396Z,8.38
2023-02-03T08:07:10.379Z,8.38
2023-02-03T08:08:10.439Z,8.39
2023-02-03T08:09:10.353Z,8.39
2023-02-03T08:10:10.365Z,8.39
2023-02-03T08:11:10.341Z,8.39
2023-02-03T08:12:10.321Z,8.39
2023-02-03T08:13:10.307Z,8.39
2023-02-03T08:14:10.298Z,8.38
2023-02-03T08:15:10.298Z,8.39
2023-02-03T08:16:10.330Z,8.38
2023-02-03T08:17:10.269Z,8.37
2023-02-03T08:18:10.259Z,8.35
2023-02-03T08:19:10.251Z,8.35
2023-02-03T08:20:10.245Z,8.35
2023-02-03T08:21:10.241Z,8.35
2023-02-03T08:22:10.235Z,8.37
2023-02-03T08:23:10.223Z,8.35
2023-02-03T08:24:10.206Z,8.35
2023-02-03T08:25:10.202Z,8.35
2023-02-03T08:26:10.193Z,8.35
2023-02-03T08:27:10.173Z,8.35
2023-02-03T08:28:10.225Z,8.37
2023-02-03T08:29:10.144Z,8.37
2023-02-03T08:30:10.144Z,8.38
2023-02-03T08:31:10.300Z,8.38
2023-02-03T08:32:10.160Z,8.38
2023-02-03T08:33:10.105Z,8.39
2023-02-03T08:34:10.115Z,8.41
2023-02-03T08:35:10.086Z,8.41
2023-02-03T08:36:10.088Z,8.39
2023-02-03T08:37:10.152Z,8.39
2023-02-03T08:38:10.046Z,8.38
2023-02-03T08:39:10.045Z,8.41
2023-02-03T08:40:10.048Z,8.41
2023-02-03T08:41:10.038Z,8.41
2023-02-03T08:42:10.026Z,8.42
2023-02-03T08:43:10.005Z,8.42
2023-02-03T08:44:09.996Z,8.44
2023-02-03T08:45:09.989Z,8.44
2023-02-03T08:46:10.730Z,8.46
2023-02-03T08:47:09.970Z,8.44
2023-02-03T08:48:09.951Z,8.44
2023-02-03T08:49:09.959Z,8.44
2023-02-03T08:50:09.937Z,8.46
2023-02-03T08:51:09.938Z,8.47
2023-02-03T08:52:09.910Z,8.49
2023-02-03T08:53:09.911Z,8.49
2023-02-03T08:54:09.891Z,8.49
2023-02-03T08:55:09.871Z,8.50
2023-02-03T08:56:09.892Z,8.50
2023-02-03T08:57:09.880Z,8.50
2023-02-03T08:58:09.865Z,8.52
2023-02-03T08:59:09.839Z,8.50
2023-02-03T09:00:09.824Z,8.52
2023-02-03T09:01:09.868Z,8.49
2023-02-03T09:02:09.812Z,8.49
2023-02-03T09:03:09.794Z,8.50
2023-02-03T09:04:09.797Z,8.50
2023-02-03T09:05:09.999Z,8.47
2023-02-03T09:06:09.793Z,8.49
2023-02-03T09:07:09.754Z,8.47
2023-02-03T09:08:09.756Z,8.47
2023-02-03T09:09:09.738Z,8.46
2023-02-03T09:10:09.742Z,8.47
2023-02-03T09:11:09.727Z,8.47
2023-02-03T09:12:09.706Z,8.49
2023-02-03T09:13:09.691Z,8.46
2023-02-03T09:14:09.687Z,8.50
2023-02-03T09:15:09.678Z,8.49
2023-02-03T09:16:09.774Z,8.50
2023-02-03T09:17:09.680Z,8.52
2023-02-03T09:18:09.644Z,8.52
2023-02-03T09:19:09.652Z,8.52
2023-02-03T09:20:09.645Z,8.53
2023-02-03T09:21:10.086Z,8.52
2023-02-03T09:22:09.603Z,8.52
2023-02-03T09:23:09.592Z,8.52
2023-02-03T09:24:09.592Z,8.52
2023-02-03T09:25:09.579Z,8.53
2023-02-03T09:26:09.583Z,8.52
2023-02-03T09:27:09.554Z,8.53
2023-02-03T09:28:09.636Z,8.53
2023-02-03T09:29:09.532Z,8.53
2023-02-03T09:30:09.521Z,8.52
2023-02-03T09:31:09.623Z,8.53
2023-02-03T09:32:09.567Z,8.53
2023-02-03T09:33:09.499Z,8.53
2023-02-03T09:34:09.507Z,8.53
2023-02-03T09:35:09.510Z,8.53
2023-02-03T09:36:09.475Z,8.53
2023-02-03T09:37:09.472Z,8.55
2023-02-03T09:38:09.437Z,8.53
2023-02-03T09:39:09.426Z,8.55
2023-02-03T09:40:09.419Z,8.55
2023-02-03T09:41:11.909Z,8.56
2023-02-03T09:42:09.400Z,8.56
2023-02-03T09:43:09.471Z,8.56
2023-02-03T09:44:09.379Z,8.56
2023-02-03T09:45:09.359Z,8.59
2023-02-03T09:46:09.436Z,8.59
2023-02-03T09:47:09.364Z,8.59
2023-02-03T09:48:09.391Z,8.60
2023-02-03T09:49:09.326Z,8.60
2023-02-03T09:50:09.309Z,8.63
2023-02-03T09:51:09.319Z,8.62
2023-02-03T09:52:09.311Z,8.63
2023-02-03T09:53:09.288Z,8.65
2023-02-03T09:54:09.271Z,8.65
2023-02-03T09:55:09.261Z,8.67
2023-02-03T09:56:09.273Z,8.67
2023-02-03T09:57:18.124Z,8.68
2023-02-03T09:58:09.231Z,8.70
2023-02-03T09:59:09.217Z,8.70
2023-02-03T10:00:09.216Z,8.70
2023-02-03T10:01:09.278Z,8.71
2023-02-03T10:02:09.250Z,8.74
2023-02-03T10:03:09.176Z,8.74
2023-02-03T10:04:09.167Z,8.75
2023-02-03T10:05:09.166Z,8.77
2023-02-03T10:06:09.191Z,8.78
2023-02-03T10:07:09.141Z,8.78
2023-02-03T10:08:09.131Z,8.80
2023-02-03T10:09:09.130Z,8.80
2023-02-03T10:10:09.115Z,8.78
2023-02-03T10:11:09.115Z,8.80
2023-02-03T10:12:09.090Z,8.80
2023-02-03T10:13:09.087Z,8.81
2023-02-03T10:14:09.067Z,8.81
2023-02-03T10:15:09.068Z,8.83
2023-02-03T10:16:09.069Z,8.81
2023-02-03T10:17:09.081Z,8.83
2023-02-03T10:18:09.031Z,8.83
2023-02-03T10:19:09.011Z,8.83
2023-02-03T10:20:09.014Z,8.83
2023-02-03T10:21:09.014Z,8.85
2023-02-03T10:22:08.992Z,8.85
2023-02-03T10:23:08.976Z,8.86
2023-02-03T10:24:08.971Z,8.88
2023-02-03T10:25:08.953Z,8.89
2023-02-03T10:26:08.966Z,8.89
2023-02-03T10:27:08.944Z,8.92
2023-02-03T10:28:09.001Z,8.92
2023-02-03T10:29:08.917Z,8.93
2023-02-03T10:30:08.905Z,8.95
2023-02-03T10:31:08.980Z,8.98
2023-02-03T10:32:09.002Z,8.98
2023-02-03T10:33:08.882Z,8.99
2023-02-03T10:34:08.875Z,8.99
2023-02-03T10:35:08.848Z,8.99
2023-02-03T10:36:08.858Z,9.01
2023-02-03T10:37:08.828Z,9.03
2023-02-03T10:38:08.837Z,9.03
2023-02-03T10:39:08.810Z,9.03
2023-02-03T10:40:08.807Z,9.03
2023-02-03T10:41:08.853Z,9.03
2023-02-03T10:42:08.800Z,9.03
2023-02-03T10:43:08.768Z,9.03
2023-02-03T10:44:08.775Z,9.03
2023-02-03T10:45:08.748Z,9.04
2023-02-03T10:46:08.865Z,9.04
2023-02-03T10:47:08.729Z,9.04
2023-02-03T10:48:08.721Z,9.06
2023-02-03T10:49:08.711Z,9.04
2023-02-03T10:50:08.704Z,9.03
2023-02-03T10:51:08.684Z,9.03
2023-02-03T10:52:08.733Z,9.04
2023-02-03T10:53:08.673Z,9.06
2023-02-03T10:54:08.663Z,9.06
2023-02-03T10:55:08.671Z,9.06
2023-02-03T10:56:08.650Z,9.06
2023-02-03T10:57:08.678Z,9.09
2023-02-03T10:58:08.618Z,9.11
2023-02-03T10:59:08.603Z,9.09
2023-02-03T11:00:08.604Z,9.11
2023-02-03T11:01:08.689Z,9.12
2023-02-03T11:02:08.606Z,9.12
2023-02-03T11:03:08.575Z,9.14
2023-02-03T11:04:08.595Z,9.15
2023-02-03T11:05:08.554Z,9.15
2023-02-03T11:06:08.536Z,9.16
2023-02-03T11:07:08.536Z,9.18
2023-02-03T11:08:08.524Z,9.16
2023-02-03T11:09:08.505Z,9.16
2023-02-03T11:10:08.502Z,9.16
2023-02-03T11:11:08.496Z,9.16
2023-02-03T11:12:08.505Z,9.16
2023-02-03T11:13:08.467Z,9.16
2023-02-03T11:14:08.459Z,9.15
2023-02-03T11:15:08.441Z,9.16
2023-02-03T11:16:08.564Z,9.18
2023-02-03T11:17:08.437Z,9.18
2023-02-03T11:18:08.410Z,9.19
2023-02-03T11:19:08.411Z,9.18
2023-02-03T11:20:08.404Z,9.18
2023-02-03T11:21:08.383Z,9.19
2023-02-03T11:22:08.397Z,9.22
2023-02-03T11:23:08.363Z,9.22
2023-02-03T11:24:08.384Z,9.22
2023-02-03T11:25:08.341Z,9.23
2023-02-03T11:26:08.334Z,9.23
2023-02-03T11:27:08.338Z,9.23
2023-02-03T11:28:08.395Z,9.23
2023-02-03T11:29:08.360Z,9.24
2023-02-03T11:30:08.294Z,9.24
2023-02-03T11:31:08.413Z,9.24
2023-02-03T11:32:08.326Z,9.26
2023-02-03T11:33:08.256Z,9.24
2023-02-03T11:34:08.254Z,9.27
2023-02-03T11:35:08.235Z,9.27
2023-02-03T11:36:08.230Z,9.29
2023-02-03T11:37:08.239Z,9.30
2023-02-03T11:38:08.217Z,9.27
2023-02-03T11:39:08.190Z,9.29
2023-02-03T11:40:08.185Z,9.29
2023-02-03T11:41:08.169Z,9.29
2023-02-03T11:42:08.189Z,9.29
2023-02-03T11:43:08.149Z,9.32
2023-02-03T11:44:08.151Z,9.30
2023-02-03T11:45:08.129Z,9.32
2023-02-03T11:46:08.203Z,9.32
2023-02-03T11:47:08.132Z,9.32
2023-02-03T11:48:08.123Z,9.32
2023-02-03T11:49:08.095Z,9.32
2023-02-03T11:50:08.091Z,9.33
2023-02-03T11:51:08.090Z,9.34
2023-02-03T11:52:08.083Z,9.34
2023-02-03T11:53:08.050Z,9.34
2023-02-03T11:54:08.068Z,9.36
2023-02-03T11:55:08.023Z,9.36
2023-02-03T11:56:08.026Z,9.37
2023-02-03T11:57:08.024Z,9.37
2023-02-03T11:58:08.011Z,9.37
2023-02-03T11:59:07.986Z,9.40
2023-02-03T12:00:07.984Z,9.37
2023-02-03T12:01:08.010Z,9.37
2023-02-03T12:02:07.987Z,9.37
2023-02-03T12:03:07.982Z,9.37
2023-02-03T12:04:07.984Z,9.37
2023-02-03T12:05:07.948Z,9.36
2023-02-03T12:06:07.925Z,9.36
2023-02-03T12:07:07.934Z,9.37
2023-02-03T12:08:07.903Z,9.37
2023-02-03T12:09:07.879Z,9.36
2023-02-03T12:10:07.887Z,9.37
2023-02-03T12:11:07.868Z,9.37
2023-02-03T12:12:07.879Z,9.36
2023-02-03T12:13:07.842Z,9.36
2023-02-03T12:14:07.846Z,9.34
2023-02-03T12:15:07.824Z,9.33
2023-02-03T12:16:07.830Z,9.30
2023-02-03T12:17:07.811Z,9.29
2023-02-03T12:18:17.577Z,9.27
2023-02-03T12:19:07.781Z,9.29
2023-02-03T12:20:07.775Z,9.26
2023-02-03T12:21:07.768Z,9.27
2023-02-03T12:22:07.788Z,9.26
2023-02-03T12:23:07.747Z,9.26
2023-02-03T12:24:07.738Z,9.26
2023-02-03T12:25:07.740Z,9.24
2023-02-03T12:26:07.718Z,9.24
2023-02-03T12:27:07.723Z,9.24
2023-02-03T12:28:07.758Z,9.22
2023-02-03T12:29:07.681Z,9.22
2023-02-03T12:30:07.679Z,9.23
2023-02-03T12:31:07.846Z,9.22
2023-02-03T12:32:07.710Z,9.23
2023-02-03T12:33:07.651Z,9.22
2023-02-03T12:34:07.643Z,9.22
2023-02-03T12:35:07.622Z,9.19
2023-02-03T12:36:07.613Z,9.19
2023-02-03T12:37:07.614Z,9.18
2023-02-03T12:38:07.606Z,9.16
2023-02-03T12:39:07.589Z,9.18
2023-02-03T12:40:07.569Z,9.18
2023-02-03T12:41:07.553Z,9.16
2023-02-03T12:42:07.569Z,9.15
2023-02-03T12:43:07.536Z,9.15
2023-02-03T12:44:07.532Z,9.16
2023-02-03T12:45:07.559Z,9.15
2023-02-03T12:46:07.538Z,9.16
2023-02-03T12:47:07.508Z,9.14
2023-02-03T12:48:07.496Z,9.14
2023-02-03T12:49:07.476Z,9.12
2023-02-03T12:50:07.475Z,9.12
2023-02-03T12:51:07.460Z,9.14
2023-02-03T12:52:07.469Z,9.12
2023-02-03T12:53:07.438Z,9.14
2023-02-03T12:54:07.435Z,9.12
2023-02-03T12:55:07.419Z,9.09
2023-02-03T12:56:07.421Z,9.09
2023-02-03T12:57:07.408Z,9.09
2023-02-03T12:58:07.417Z,9.09
2023-02-03T12:59:07.375Z,9.11
2023-02-03T13:00:07.368Z,9.08
2023-02-03T13:01:07.420Z,9.09
2023-02-03T13:02:07.391Z,9.09
2023-02-03T13:03:07.345Z,9.11
2023-02-03T13:04:07.319Z,9.11
2023-02-03T13:05:07.322Z,9.12
2023-02-03T13:06:07.303Z,9.14
2023-02-03T13:07:07.317Z,9.16
2023-02-03T13:08:07.273Z,9.16
2023-02-03T13:09:07.265Z,9.15
2023-02-03T13:10:07.255Z,9.15
2023-02-03T13:11:07.256Z,9.16
2023-02-03T13:12:07.278Z,9.16
2023-02-03T13:13:07.237Z,9.16
2023-02-03T13:14:07.218Z,9.15
2023-02-03T13:15:07.206Z,9.16
2023-02-03T13:16:07.227Z,9.16
2023-02-03T13:17:07.207Z,9.18
2023-02-03T13:18:07.179Z,9.15